createdAt,value
2023-04-16T00:00:21.011Z,8.95
2023-04-16T00:02:49.144Z,9.00
2023-04-16T00:05:17.350Z,9.65
2023-04-16T00:07:46.901Z,9.43
2023-04-16T00:10:15.372Z,8.23
2023-04-16T00:12:43.434Z,8.32
2023-04-16T00:15:11.887Z,11.02
2023-04-16T00:17:39.933Z,12.82
2023-04-16T00:20:10.060Z,11.55
2023-04-16T00:22:38.172Z,10.05
2023-04-16T00:25:08.219Z,9.77
2023-04-16T00:27:36.341Z,11.27
2023-04-16T00:30:04.520Z,9.10
2023-04-16T00:32:32.576Z,10.57
2023-04-16T00:35:00.620Z,10.07
2023-04-16T00:37:28.693Z,8.48
2023-04-16T00:39:56.770Z,8.73
2023-04-16T00:42:26.459Z,9.27
2023-04-16T00:44:54.539Z,8.93
2023-04-16T00:47:22.627Z,10.25
2023-04-16T00:49:50.754Z,9.75
2023-04-16T00:52:18.818Z,9.80
2023-04-16T00:54:47.198Z,10.13
2023-04-16T00:57:15.340Z,10.23
2023-04-16T00:59:44.852Z,10.50
2023-04-16T01:02:13.090Z,10.38
2023-04-16T01:04:41.402Z,10.15
2023-04-16T01:07:09.475Z,9.95
2023-04-16T01:09:37.569Z,10.80
2023-04-16T01:12:05.743Z,9.85
2023-04-16T01:14:36.564Z,10.95
2023-04-16T01:17:06.057Z,10.90
2023-04-16T01:19:36.347Z,11.05
2023-04-16T01:22:05.954Z,12.93
2023-04-16T01:24:35.026Z,13.15
2023-04-16T01:27:03.125Z,10.27
2023-04-16T01:29:31.339Z,11.38
2023-04-16T01:31:59.379Z,13.85
2023-04-16T01:34:27.440Z,11.77
2023-04-16T01:36:55.606Z,13.20
2023-04-16T01:39:25.115Z,11.43
2023-04-16T01:41:53.209Z,12.60
2023-04-16T01:44:21.885Z,12.82
2023-04-16T01:46:50.018Z,11.40
2023-04-16T01:49:18.186Z,12.63
2023-04-16T01:51:46.269Z,14.27
2023-04-16T01:54:14.356Z,12.52
2023-04-16T01:56:43.897Z,14.43
2023-04-16T01:59:12.428Z,13.30
2023-04-16T02:01:40.631Z,13.13
2023-04-16T02:04:08.748Z,13.88
2023-04-16T02:06:36.790Z,14.48
2023-04-16T02:09:05.070Z,13.93
2023-04-16T02:11:33.181Z,13.02
2023-04-16T02:14:02.781Z,15.05
2023-04-16T02:16:31.213Z,12.85
2023-04-16T02:18:59.439Z,13.93
2023-04-16T02:21:27.570Z,14.52
2023-04-16T02:23:55.743Z,13.40
2023-04-16T02:26:23.802Z,14.00
2023-04-16T02:28:51.983Z,12.80
2023-04-16T02:31:22.807Z,14.07
2023-04-16T02:33:50.936Z,14.70
2023-04-16T02:36:19.016Z,15.23
2023-04-16T02:38:47.063Z,13.40
2023-04-16T02:41:15.176Z,13.77
2023-04-16T02:43:43.312Z,14.82
2023-04-16T02:46:11.502Z,14.82
2023-04-16T02:48:41.188Z,14.20
2023-04-16T02:51:09.289Z,14.30
2023-04-16T02:53:37.374Z,13.63
2023-04-16T02:56:06.070Z,14.95
2023-04-16T02:58:34.158Z,15.38
2023-04-16T03:01:02.327Z,15.70
2023-04-16T03:03:30.480Z,16.10
2023-04-16T03:05:59.957Z,15.75
2023-04-16T03:08:28.143Z,17.00
2023-04-16T03:10:56.347Z,18.38
2023-04-16T03:13:24.373Z,16.17
2023-04-16T03:15:52.509Z,17.92
2023-04-16T03:18:20.678Z,17.17
2023-04-16T03:20:53.160Z,17.38
2023-04-16T03:23:22.580Z,16.52
2023-04-16T03:25:51.165Z,18.50
2023-04-16T03:28:19.211Z,17.90
2023-04-16T03:30:52.520Z,17.50
2023-04-16T03:33:20.747Z,18.58
2023-04-16T03:35:48.910Z,16.00
2023-04-16T03:38:16.972Z,16.65
2023-04-16T03:40:46.790Z,15.90
2023-04-16T03:43:14.841Z,18.42
2023-04-16T03:45:45.955Z,18.90
2023-04-16T03:48:14.039Z,20.00
2023-04-16T03:50:42.063Z,17.85
2023-04-16T03:53:10.098Z,18.67
2023-04-16T03:55:38.163Z,17.05
2023-04-16T03:58:07.568Z,16.83
2023-04-16T04:00:35.705Z,18.00
2023-04-16T04:03:04.128Z,17.20
2023-04-16T04:05:32.375Z,16.98
2023-04-16T04:08:00.451Z,17.77
2023-04-16T04:10:28.517Z,16.20
2023-04-16T04:12:56.557Z,14.98
2023-04-16T04:15:25.948Z,17.50
2023-04-16T04:17:54.080Z,16.83
2023-04-16T04:20:22.164Z,17.38
2023-04-16T04:22:50.859Z,16.95
2023-04-16T04:25:19.086Z,17.98
2023-04-16T04:27:47.194Z,18.33
2023-04-16T04:30:15.519Z,16.92
2023-04-16T04:32:44.934Z,15.40
2023-04-16T04:35:13.046Z,16.73
2023-04-16T04:37:41.146Z,16.90
2023-04-16T04:40:10.583Z,18.17
2023-04-16T04:42:39.243Z,17.40
2023-04-16T04:45:08.580Z,16.00
2023-04-16T04:47:36.669Z,17.17
2023-04-16T04:50:07.190Z,16.65
2023-04-16T04:52:35.268Z,17.05
2023-04-16T04:55:03.396Z,18.77
2023-04-16T04:57:31.544Z,16.20
2023-04-16T04:59:59.658Z,17.55
2023-04-16T05:02:27.885Z,17.23
2023-04-16T05:04:56.119Z,18.17
2023-04-16T05:07:25.632Z,18.77
2023-04-16T05:09:53.710Z,16.75
2023-04-16T05:12:21.711Z,17.40
2023-04-16T05:14:49.782Z,14.82
2023-04-16T05:17:18.058Z,17.67
2023-04-16T05:19:46.195Z,16.98
2023-04-16T05:22:14.261Z,17.45
2023-04-16T05:24:43.817Z,17.80
2023-04-16T05:27:11.916Z,15.98
2023-04-16T05:29:40.029Z,16.75
2023-04-16T05:32:08.267Z,16.23
2023-04-16T05:34:39.144Z,18.17
2023-04-16T05:37:07.312Z,18.67
2023-04-16T05:39:36.949Z,18.85
2023-04-16T05:42:06.539Z,18.05
2023-04-16T05:44:35.098Z,17.02
2023-04-16T05:47:03.141Z,17.20
2023-04-16T05:49:31.307Z,17.08
2023-04-16T05:52:00.021Z,17.70
2023-04-16T05:54:30.160Z,15.68
2023-04-16T05:56:59.215Z,16.98
2023-04-16T05:59:29.348Z,16.25
2023-04-16T06:01:58.036Z,15.00
2023-04-16T06:04:26.537Z,15.70
2023-04-16T06:07:00.515Z,15.88
2023-04-16T06:09:28.915Z,15.65
2023-04-16T06:11:58.035Z,15.98
2023-04-16T06:14:26.153Z,15.95
2023-04-16T06:16:56.506Z,15.13
2023-04-16T06:19:25.142Z,15.20
2023-04-16T06:21:53.788Z,16.27
2023-04-16T06:24:22.274Z,14.70
2023-04-16T06:26:50.293Z,15.57
2023-04-16T06:29:18.375Z,14.82
2023-04-16T06:31:46.503Z,15.15
2023-04-16T06:34:16.543Z,15.00
2023-04-16T06:36:49.215Z,14.50
2023-04-16T06:39:18.638Z,13.18
2023-04-16T06:41:47.024Z,15.43
2023-04-16T06:44:15.447Z,14.23
2023-04-16T06:46:43.607Z,12.85
2023-04-16T06:49:12.032Z,18.02
2023-04-16T06:51:41.960Z,16.50
2023-04-16T06:54:10.105Z,14.48
2023-04-16T06:56:38.876Z,13.55
2023-04-16T06:59:08.577Z,13.98
2023-04-16T07:01:37.284Z,12.45
2023-04-16T07:04:06.242Z,14.75
2023-04-16T07:06:34.773Z,12.40
2023-04-16T07:09:04.636Z,12.45
2023-04-16T07:11:33.535Z,12.65
2023-04-16T07:14:01.796Z,11.88
2023-04-16T07:16:30.154Z,11.30
2023-04-16T07:18:58.296Z,11.90
2023-04-16T07:21:26.352Z,12.80
2023-04-16T07:23:54.433Z,12.15
2023-04-16T07:26:23.887Z,11.40
2023-04-16T07:28:52.043Z,11.60
2023-04-16T07:31:20.111Z,11.73
2023-04-16T07:33:48.192Z,12.82
2023-04-16T07:36:16.246Z,10.80
2023-04-16T07:38:44.299Z,11.65
2023-04-16T07:41:12.324Z,10.82
2023-04-16T07:43:41.738Z,11.80
2023-04-16T07:46:10.625Z,11.48
2023-04-16T07:48:39.560Z,9.63
2023-04-16T07:51:08.609Z,13.15
2023-04-16T07:53:37.659Z,11.40
2023-04-16T07:56:07.082Z,11.55
2023-04-16T07:58:35.690Z,13.48
2023-04-16T08:01:05.715Z,11.88
2023-04-16T08:03:34.242Z,11.98
2023-04-16T08:06:06.042Z,12.45
2023-04-16T08:08:49.744Z,14.32
2023-04-16T08:11:25.730Z,12.73
2023-04-16T08:16:39.375Z,13.82
2023-04-16T08:19:13.392Z,8.07
2023-04-16T08:21:50.957Z,15.35
2023-04-16T08:24:30.837Z,14.15
2023-04-16T08:27:15.407Z,13.90
2023-04-16T08:29:50.216Z,13.60
2023-04-16T08:32:29.570Z,13.88
2023-04-16T08:35:03.136Z,13.88
2023-04-16T08:37:34.361Z,13.55
2023-04-16T08:40:04.875Z,15.10
2023-04-16T08:42:43.651Z,15.07
2023-04-16T08:45:17.824Z,13.82
2023-04-16T08:47:49.106Z,13.18
2023-04-16T08:50:20.701Z,13.60
2023-04-16T08:52:56.649Z,13.40
2023-04-16T08:57:59.679Z,14.45
2023-04-16T09:00:31.759Z,12.77
2023-04-16T09:03:07.034Z,13.50
2023-04-16T09:05:42.014Z,12.45
2023-04-16T09:08:20.421Z,13.65
2023-04-16T09:10:55.683Z,14.10
2023-04-16T09:13:32.646Z,12.50
2023-04-16T09:16:11.572Z,14.30
2023-04-16T09:18:48.035Z,13.32
2023-04-16T09:21:32.506Z,15.07
2023-04-16T09:24:07.851Z,14.65
2023-04-16T09:26:52.028Z,14.13
2023-04-16T09:29:57.575Z,12.65
2023-04-16T09:32:35.438Z,14.30
2023-04-16T09:35:07.859Z,13.90
2023-04-16T09:37:52.364Z,14.02
2023-04-16T09:40:23.397Z,12.35
2023-04-16T09:42:51.696Z,14.38
2023-04-16T09:45:19.811Z,14.70
2023-04-16T09:47:47.967Z,12.63
2023-04-16T09:50:18.925Z,15.18
2023-04-16T09:52:49.854Z,13.13
2023-04-16T09:55:19.240Z,12.15
2023-04-16T09:57:47.339Z,11.82
2023-04-16T10:00:19.526Z,13.68
2023-04-16T10:02:50.630Z,12.60
2023-04-16T10:05:20.925Z,12.50
2023-04-16T10:07:49.567Z,13.00
2023-04-16T10:10:17.787Z,12.95
2023-04-16T10:12:45.973Z,12.65
2023-04-16T10:15:14.042Z,12.85
2023-04-16T10:17:42.307Z,13.00
2023-04-16T10:20:10.867Z,12.13
2023-04-16T10:22:40.295Z,12.75
2023-04-16T10:25:09.131Z,11.90
2023-04-16T10:27:37.920Z,10.85
2023-04-16T10:30:06.856Z,9.75
2023-04-16T10:32:35.132Z,10.30
2023-04-16T10:35:03.247Z,10.98
2023-04-16T10:37:32.077Z,12.20
2023-04-16T10:40:01.807Z,12.20
2023-04-16T10:42:29.931Z,11.50
2023-04-16T10:45:00.984Z,11.10
2023-04-16T10:47:29.900Z,11.23
2023-04-16T10:49:58.438Z,12.18
2023-04-16T10:52:26.619Z,11.70
2023-04-16T10:54:58.927Z,12.23
2023-04-16T10:57:29.470Z,9.25
2023-04-16T10:59:59.842Z,10.93
2023-04-16T11:02:30.308Z,12.02
2023-04-16T11:04:58.673Z,12.90
2023-04-16T11:07:34.251Z,13.13
2023-04-16T11:10:04.311Z,13.80
2023-04-16T11:12:38.089Z,13.05
2023-04-16T11:15:07.588Z,12.68
2023-04-16T11:17:39.200Z,13.57
2023-04-16T11:20:18.668Z,14.65
2023-04-16T11:22:48.569Z,13.13
2023-04-16T11:25:21.242Z,13.85
2023-04-16T11:27:51.189Z,16.27
2023-04-16T11:30:19.666Z,15.95
2023-04-16T11:32:48.013Z,16.13
2023-04-16T11:35:17.266Z,14.65
2023-04-16T11:37:45.548Z,13.55
2023-04-16T11:40:14.279Z,14.25
2023-04-16T11:42:42.845Z,14.90
2023-04-16T11:45:13.575Z,14.93
2023-04-16T11:47:45.939Z,14.82
2023-04-16T11:50:22.063Z,14.63
2023-04-16T11:52:50.781Z,15.30
2023-04-16T11:55:19.183Z,15.90
2023-04-16T11:57:47.439Z,13.88
2023-04-16T12:00:18.125Z,14.20
2023-04-16T12:02:47.336Z,14.25
2023-04-16T12:05:28.689Z,15.75
2023-04-16T12:07:57.076Z,14.93
2023-04-16T12:10:26.418Z,14.95
2023-04-16T12:12:54.956Z,17.20
2023-04-16T12:15:24.749Z,15.38
2023-04-16T12:17:54.611Z,16.38
2023-04-16T12:20:22.989Z,17.95
2023-04-16T12:22:52.814Z,21.40
2023-04-16T12:25:21.199Z,21.05
2023-04-16T12:27:53.324Z,18.98
2023-04-16T12:30:24.396Z,16.95
2023-04-16T12:32:53.270Z,16.52
2023-04-16T12:35:31.264Z,17.33
2023-04-16T12:37:59.588Z,16.38
2023-04-16T12:40:27.969Z,17.50
2023-04-16T12:42:56.217Z,17.95
2023-04-16T12:45:26.235Z,17.55
2023-04-16T12:47:54.537Z,18.50
2023-04-16T12:50:22.774Z,18.55
2023-04-16T12:52:51.037Z,18.33
2023-04-16T12:55:19.612Z,18.13
2023-04-16T12:57:49.131Z,19.42
2023-04-16T13:00:17.787Z,18.92
2023-04-16T13:02:47.440Z,21.70
2023-04-16T13:05:16.689Z,19.48
2023-04-16T13:07:44.865Z,20.52
2023-04-16T13:10:13.408Z,19.80
2023-04-16T13:12:46.700Z,19.30
2023-04-16T13:15:14.883Z,19.75
2023-04-16T13:17:43.047Z,20.58
2023-04-16T13:20:13.032Z,18.13
2023-04-16T13:22:41.423Z,18.80
2023-04-16T13:25:10.654Z,20.27
2023-04-16T13:27:38.725Z,20.20
2023-04-16T13:30:08.314Z,19.25
2023-04-16T13:32:36.567Z,18.45
2023-04-16T13:35:05.204Z,19.75
2023-04-16T13:37:35.618Z,19.13
2023-04-16T13:40:03.971Z,19.92
2023-04-16T13:42:32.597Z,21.42
2023-04-16T13:45:01.492Z,20.38
2023-04-16T13:47:29.821Z,21.70
2023-04-16T13:49:58.983Z,25.33
2023-04-16T13:52:27.425Z,23.10
2023-04-16T13:54:58.910Z,20.17
2023-04-16T13:57:28.225Z,20.45
2023-04-16T13:59:56.633Z,19.27
2023-04-16T14:02:26.308Z,18.52
2023-04-16T14:04:54.854Z,19.70
2023-04-16T14:07:26.318Z,21.65
2023-04-16T14:09:54.561Z,21.45
2023-04-16T14:12:24.154Z,21.20
2023-04-16T14:14:52.343Z,19.98
2023-04-16T14:17:20.535Z,19.90
2023-04-16T14:19:48.779Z,22.60
2023-04-16T14:22:18.114Z,20.38
2023-04-16T14:24:46.352Z,20.98
2023-04-16T14:27:14.558Z,22.67
2023-04-16T14:29:46.527Z,20.45
2023-04-16T14:32:14.701Z,20.05
2023-04-16T14:34:42.982Z,20.83
2023-04-16T14:37:11.494Z,19.63
2023-04-16T14:39:39.903Z,19.80
2023-04-16T14:42:08.017Z,21.38
2023-04-16T14:44:36.307Z,20.67
2023-04-16T14:47:06.156Z,20.38
2023-04-16T14:49:34.928Z,21.27
2023-04-16T14:52:05.757Z,24.88
2023-04-16T14:54:34.411Z,22.77
2023-04-16T14:57:03.527Z,23.17
2023-04-16T14:59:32.500Z,24.08
2023-04-16T15:02:01.210Z,22.63
2023-04-16T15:04:31.531Z,25.35
2023-04-16T15:07:00.289Z,28.38
2023-04-16T15:09:28.563Z,24.17
2023-04-16T15:11:57.070Z,24.75
2023-04-16T15:14:25.344Z,21.98
2023-04-16T15:16:53.537Z,20.30
2023-04-16T15:19:21.812Z,20.67
2023-04-16T15:21:51.744Z,21.77
2023-04-16T15:24:19.980Z,21.65
2023-04-16T15:26:48.416Z,21.33
2023-04-16T15:29:17.389Z,21.25
2023-04-16T15:31:45.604Z,23.83
2023-04-16T15:34:14.338Z,20.92
2023-04-16T15:36:42.998Z,22.48
2023-04-16T15:39:12.826Z,25.83
2023-04-16T15:41:53.578Z,24.17
2023-04-16T15:44:28.011Z,25.00
2023-04-16T15:46:56.571Z,23.13
2023-04-16T15:49:24.899Z,25.02
2023-04-16T15:51:53.117Z,22.02
2023-04-16T15:54:22.861Z,23.40
2023-04-16T15:56:51.289Z,24.67
2023-04-16T15:59:19.726Z,24.52
2023-04-16T16:01:47.952Z,24.35
2023-04-16T16:04:16.471Z,24.70
2023-04-16T16:06:44.954Z,24.23
2023-04-16T16:09:13.389Z,23.52
2023-04-16T16:11:43.304Z,24.75
2023-04-16T16:14:11.849Z,26.55
2023-04-16T16:16:40.333Z,25.35
2023-04-16T16:19:08.717Z,25.67
2023-04-16T16:21:37.378Z,24.85
2023-04-16T16:24:05.807Z,24.33
2023-04-16T16:26:34.040Z,24.23
2023-04-16T16:29:03.555Z,25.23
2023-04-16T16:31:31.729Z,25.02
2023-04-16T16:33:59.926Z,23.73
2023-04-16T16:36:28.108Z,24.10
2023-04-16T16:38:57.133Z,24.70
2023-04-16T16:41:25.479Z,23.25
2023-04-16T16:43:56.191Z,27.20
2023-04-16T16:46:25.930Z,25.98
2023-04-16T16:48:54.081Z,26.98
2023-04-16T16:51:22.196Z,24.77
2023-04-16T16:53:50.287Z,25.13
2023-04-16T16:56:18.405Z,23.75
2023-04-16T16:58:46.475Z,22.90
2023-04-16T17:01:14.571Z,20.90
2023-04-16T17:03:44.349Z,21.90
2023-04-16T17:06:12.753Z,21.30
2023-04-16T17:08:41.070Z,22.70
2023-04-16T17:11:09.125Z,22.17
2023-04-16T17:13:37.269Z,23.83
2023-04-16T17:16:05.760Z,24.95
2023-04-16T17:18:33.922Z,25.23
2023-04-16T17:21:03.374Z,24.67
2023-04-16T17:23:31.469Z,23.65
2023-04-16T17:26:01.207Z,25.65
2023-04-16T17:28:29.471Z,23.23
2023-04-16T17:30:57.735Z,22.13
2023-04-16T17:33:25.991Z,20.92
2023-04-16T17:35:54.039Z,24.98
2023-04-16T17:38:23.497Z,21.58
2023-04-16T17:40:51.631Z,23.55
2023-04-16T17:43:19.732Z,22.33
2023-04-16T17:45:47.931Z,22.08
2023-04-16T17:48:16.143Z,21.50
2023-04-16T17:50:44.287Z,23.98
2023-04-16T17:53:12.392Z,22.95
2023-04-16T17:55:42.803Z,27.08
2023-04-16T17:58:10.871Z,28.77
2023-04-16T18:00:38.959Z,27.67
2023-04-16T18:03:09.783Z,27.05
2023-04-16T18:05:38.125Z,27.40
2023-04-16T18:08:06.604Z,26.27
2023-04-16T18:10:34.680Z,27.63
2023-04-16T18:13:04.092Z,24.58
2023-04-16T18:15:32.182Z,25.25
2023-04-16T18:18:00.419Z,24.27
2023-04-16T18:20:28.658Z,29.17
2023-04-16T18:22:56.894Z,28.77
2023-04-16T18:25:33.980Z,22.60
2023-04-16T18:28:06.261Z,23.55
2023-04-16T18:30:34.751Z,22.30
2023-04-16T18:35:33.888Z,30.85
2023-04-16T18:38:02.314Z,32.75
2023-04-16T18:40:30.515Z,29.33
2023-04-16T18:42:58.635Z,32.70
2023-04-16T18:45:28.494Z,33.55
2023-04-16T18:47:58.809Z,33.67
2023-04-16T18:50:29.135Z,44.90
2023-04-16T18:52:57.278Z,31.60
2023-04-16T18:55:25.445Z,29.67
2023-04-16T18:57:55.050Z,32.28
2023-04-16T19:00:23.414Z,27.90
2023-04-16T19:02:52.957Z,26.33
2023-04-16T19:05:21.744Z,26.13
2023-04-16T19:07:49.813Z,26.58
2023-04-16T19:10:18.006Z,26.88
2023-04-16T19:12:46.100Z,25.90
2023-04-16T19:15:14.864Z,25.45
2023-04-16T19:17:42.990Z,24.65
2023-04-16T19:20:12.907Z,25.38
2023-04-16T19:22:41.257Z,26.63
2023-04-16T19:25:10.396Z,26.33
2023-04-16T19:27:38.469Z,26.35
2023-04-16T19:30:07.848Z,28.25
2023-04-16T19:32:36.500Z,27.77
2023-04-16T19:35:04.960Z,28.70
2023-04-16T19:37:34.450Z,29.60
2023-04-16T19:40:02.698Z,27.75
2023-04-16T19:42:30.976Z,28.65
2023-04-16T19:44:59.124Z,28.55
2023-04-16T19:47:27.918Z,28.75
2023-04-16T19:49:56.201Z,30.38
2023-04-16T19:52:24.432Z,31.95
2023-04-16T19:54:56.721Z,34.38
2023-04-16T19:57:24.806Z,32.97
2023-04-16T19:59:54.663Z,32.72
2023-04-16T20:02:23.350Z,34.33
2023-04-16T20:04:53.112Z,32.95
2023-04-16T20:07:21.416Z,31.05
2023-04-16T20:09:49.686Z,31.65
2023-04-16T20:12:19.380Z,30.95
2023-04-16T20:14:48.307Z,28.92
2023-04-16T20:17:18.671Z,32.75
2023-04-16T20:19:49.671Z,25.73
2023-04-16T20:22:18.858Z,28.77
2023-04-16T20:24:48.373Z,26.02
2023-04-16T20:27:19.502Z,23.10
2023-04-16T20:29:47.620Z,23.90
2023-04-16T20:32:15.687Z,23.30
2023-04-16T20:34:43.799Z,23.38
2023-04-16T20:37:11.844Z,22.45
2023-04-16T20:39:40.663Z,25.40
2023-04-16T20:42:10.245Z,26.02
2023-04-16T20:44:41.303Z,27.52
2023-04-16T20:47:09.679Z,28.27
2023-04-16T20:49:38.433Z,24.85
2023-04-16T20:52:07.464Z,27.83
2023-04-16T20:54:35.632Z,28.90
2023-04-16T20:57:04.835Z,29.48
2023-04-16T20:59:33.193Z,26.65
2023-04-16T21:02:02.941Z,27.85
2023-04-16T21:04:31.784Z,31.02
2023-04-16T21:07:03.199Z,29.38
2023-04-16T21:09:31.580Z,26.60
2023-04-16T21:11:59.656Z,29.63
2023-04-16T21:14:27.861Z,24.27
2023-04-16T21:16:55.967Z,25.20
2023-04-16T21:19:25.445Z,23.20
2023-04-16T21:21:53.574Z,22.90
2023-04-16T21:24:21.674Z,25.77
2023-04-16T21:26:49.742Z,23.58
2023-04-16T21:29:17.991Z,23.90
2023-04-16T21:31:46.165Z,24.30
2023-04-16T21:34:14.390Z,24.13
2023-04-16T21:36:43.815Z,25.83
2023-04-16T21:39:12.271Z,26.75
2023-04-16T21:41:40.639Z,26.35
2023-04-16T21:44:08.774Z,27.20
2023-04-16T21:46:36.929Z,25.10
2023-04-16T21:49:05.051Z,25.90
2023-04-16T21:51:33.275Z,28.75
2023-04-16T21:54:02.738Z,28.13
2023-04-16T21:56:30.849Z,29.90
2023-04-16T21:58:58.958Z,27.63
2023-04-16T22:01:27.327Z,28.30
2023-04-16T22:03:55.788Z,24.65
2023-04-16T22:06:24.003Z,25.60
2023-04-16T22:08:53.500Z,29.70
2023-04-16T22:11:23.143Z,27.17
2023-04-16T22:13:51.910Z,24.42
2023-04-16T22:16:20.092Z,25.38
2023-04-16T22:18:48.483Z,27.15
2023-04-16T22:21:16.592Z,28.25
2023-04-16T22:23:44.746Z,27.67
2023-04-16T22:26:13.036Z,28.52
2023-04-16T22:28:42.476Z,28.85
2023-04-16T22:31:10.574Z,27.85
2023-04-16T22:33:38.658Z,27.45
2023-04-16T22:36:07.811Z,27.05
2023-04-16T22:38:36.994Z,29.10
2023-04-16T22:41:05.139Z,26.95
2023-04-16T22:43:35.005Z,25.45
2023-04-16T22:46:06.595Z,27.88
2023-04-16T22:48:36.317Z,29.58
2023-04-16T22:51:04.442Z,27.10
2023-04-16T22:53:32.633Z,29.23
2023-04-16T22:56:00.901Z,30.23
2023-04-16T22:58:29.002Z,26.30
2023-04-16T23:00:59.486Z,27.90
2023-04-16T23:03:29.330Z,27.33
2023-04-16T23:05:57.463Z,28.25
2023-04-16T23:08:25.732Z,28.33
2023-04-16T23:10:54.823Z,27.30
2023-04-16T23:13:22.989Z,27.10
2023-04-16T23:15:51.120Z,30.67
2023-04-16T23:18:19.223Z,34.83
2023-04-16T23:20:51.691Z,37.63
2023-04-16T23:23:19.819Z,35.97
2023-04-16T23:25:47.912Z,34.92
2023-04-16T23:28:16.009Z,31.60
2023-04-16T23:30:44.685Z,28.90
2023-04-16T23:33:12.844Z,26.90
2023-04-16T23:35:40.920Z,25.13
2023-04-16T23:38:12.848Z,25.73
2023-04-16T23:40:41.331Z,25.10
2023-04-16T23:43:09.483Z,24.70
2023-04-16T23:45:37.628Z,23.35
2023-04-16T23:48:06.034Z,22.60
2023-04-16T23:50:34.099Z,23.67
2023-04-16T23:53:02.224Z,24.42
2023-04-16T23:55:31.751Z,22.92
2023-04-16T23:57:59.832Z,22.15
